sensor_id;sensor_type;location;lat;lon;timestamp;P1;durP1;ratioP1;P2;durP2;ratioP2
72547;SDS011;60570;50.848;6.776;2024-03-23T00:53:10;1060.55;;;965.05;;
72547;SDS011;60570;50.848;6.776;2024-03-23T00:54:12;1059.28;;;964.00;;
72547;SDS011;60570;50.848;6.776;2024-03-23T00:55:14;1063.72;;;968.38;;
72547;SDS011;60570;50.848;6.776;2024-03-23T00:56:14;1062.30;;;966.80;;
72547;SDS011;60570;50.848;6.776;2024-03-23T00:57:15;1062.82;;;967.95;;
72547;SDS011;60570;50.848;6.776;2024-03-23T00:58:16;1064.43;;;969.17;;
72547;SDS011;60570;50.848;6.776;2024-03-23T00:59:17;1064.00;;;969.30;;
72547;SDS011;60570;50.848;6.776;2024-03-23T01:00:18;1061.93;;;967.72;;
72547;SDS011;60570;50.848;6.776;2024-03-23T01:01:19;1063.57;;;968.63;;
72547;SDS011;60570;50.848;6.776;2024-03-23T01:02:21;1065.85;;;970.58;;
72547;SDS011;60570;50.848;6.776;2024-03-23T01:03:22;1059.90;;;964.58;;
72547;SDS011;60570;50.848;6.776;2024-03-23T01:04:23;1065.65;;;970.15;;
72547;SDS011;60570;50.848;6.776;2024-03-23T01:05:23;1063.05;;;968.00;;
72547;SDS011;60570;50.848;6.776;2024-03-23T01:06:25;1062.32;;;967.45;;
72547;SDS011;60570;50.848;6.776;2024-03-23T01:07:25;1056.55;;;961.45;;
72547;SDS011;60570;50.848;6.776;2024-03-23T01:08:26;1060.03;;;964.72;;
72547;SDS011;60570;50.848;6.776;2024-03-23T01:09:29;1059.22;;;964.15;;
72547;SDS011;60570;50.848;6.776;2024-03-23T01:10:31;1060.22;;;964.75;;
72547;SDS011;60570;50.848;6.776;2024-03-23T01:11:31;1058.65;;;963.85;;
72547;SDS011;60570;50.848;6.776;2024-03-23T01:12:32;1058.63;;;964.00;;
72547;SDS011;60570;50.848;6.776;2024-03-23T01:13:34;1063.68;;;968.55;;
72547;SDS011;60570;50.848;6.776;2024-03-23T01:14:34;1060.60;;;965.10;;
72547;SDS011;60570;50.848;6.776;2024-03-23T01:15:36;1058.97;;;963.60;;
72547;SDS011;60570;50.848;6.776;2024-03-23T01:16:37;1063.70;;;968.15;;
72547;SDS011;60570;50.848;6.776;2024-03-23T01:17:39;1060.10;;;964.78;;
72547;SDS011;60570;50.848;6.776;2024-03-23T01:18:40;1057.75;;;962.70;;
72547;SDS011;60570;50.848;6.776;2024-03-23T01:19:40;1062.28;;;967.72;;
72547;SDS011;60570;50.848;6.776;2024-03-23T01:20:41;1059.32;;;964.40;;
72547;SDS011;60570;50.848;6.776;2024-03-23T01:21:43;1062.18;;;966.80;;
72547;SDS011;60570;50.848;6.776;2024-03-23T01:22:44;1065.55;;;970.53;;
72547;SDS011;60570;50.848;6.776;2024-03-23T01:23:44;1060.45;;;965.45;;
72547;SDS011;60570;50.848;6.776;2024-03-23T01:24:46;1057.88;;;963.08;;
72547;SDS011;60570;50.848;6.776;2024-03-23T01:25:51;1062.25;;;967.45;;
72547;SDS011;60570;50.848;6.776;2024-03-23T01:26:52;1058.18;;;963.70;;
72547;SDS011;60570;50.848;6.776;2024-03-23T01:27:53;1060.47;;;965.38;;
72547;SDS011;60570;50.848;6.776;2024-03-23T01:28:53;1057.00;;;962.33;;
72547;SDS011;60570;50.848;6.776;2024-03-23T01:29:55;1061.78;;;967.33;;
72547;SDS011;60570;50.848;6.776;2024-03-23T01:30:56;1056.63;;;961.88;;
72547;SDS011;60570;50.848;6.776;2024-03-23T01:31:56;1057.95;;;963.35;;
72547;SDS011;60570;50.848;6.776;2024-03-23T01:32:57;1061.70;;;966.70;;
72547;SDS011;60570;50.848;6.776;2024-03-23T01:33:59;1058.47;;;964.58;;
72547;SDS011;60570;50.848;6.776;2024-03-23T01:34:59;1058.13;;;963.05;;
72547;SDS011;60570;50.848;6.776;2024-03-23T01:36:00;1058.40;;;963.65;;
72547;SDS011;60570;50.848;6.776;2024-03-23T01:37:01;1058.03;;;963.25;;
72547;SDS011;60570;50.848;6.776;2024-03-23T01:38:03;1060.18;;;965.35;;
72547;SDS011;60570;50.848;6.776;2024-03-23T01:39:04;1059.75;;;964.95;;
72547;SDS011;60570;50.848;6.776;2024-03-23T01:40:07;1059.27;;;964.13;;
72547;SDS011;60570;50.848;6.776;2024-03-23T01:41:09;1061.10;;;966.92;;
72547;SDS011;60570;50.848;6.776;2024-03-23T01:42:10;1058.68;;;964.67;;
72547;SDS011;60570;50.848;6.776;2024-03-23T01:43:10;1059.05;;;964.20;;
72547;SDS011;60570;50.848;6.776;2024-03-23T01:44:11;1058.30;;;962.92;;
72547;SDS011;60570;50.848;6.776;2024-03-23T01:45:13;1057.93;;;963.25;;
72547;SDS011;60570;50.848;6.776;2024-03-23T01:46:13;1057.25;;;962.42;;
72547;SDS011;60570;50.848;6.776;2024-03-23T01:47:14;1053.18;;;958.83;;
72547;SDS011;60570;50.848;6.776;2024-03-23T01:48:15;1055.55;;;960.92;;
72547;SDS011;60570;50.848;6.776;2024-03-23T01:49:17;1059.70;;;964.88;;
72547;SDS011;60570;50.848;6.776;2024-03-23T01:50:17;1061.28;;;966.65;;
72547;SDS011;60570;50.848;6.776;2024-03-23T01:51:18;1060.88;;;966.08;;
72547;SDS011;60570;50.848;6.776;2024-03-23T01:52:19;1060.50;;;966.37;;
72547;SDS011;60570;50.848;6.776;2024-03-23T01:53:21;1060.95;;;966.20;;
72547;SDS011;60570;50.848;6.776;2024-03-23T01:55:25;1053.78;;;960.95;;
72547;SDS011;60570;50.848;6.776;2024-03-23T01:56:27;1059.55;;;965.90;;
72547;SDS011;60570;50.848;6.776;2024-03-23T01:57:29;1055.43;;;962.08;;
72547;SDS011;60570;50.848;6.776;2024-03-23T01:58:30;1061.20;;;967.27;;
72547;SDS011;60570;50.848;6.776;2024-03-23T01:59:31;1059.90;;;965.63;;
72547;SDS011;60570;50.848;6.776;2024-03-23T02:00:31;1058.18;;;963.33;;
72547;SDS011;60570;50.848;6.776;2024-03-23T02:01:34;1057.50;;;963.67;;
72547;SDS011;60570;50.848;6.776;2024-03-23T02:02:36;1055.80;;;962.22;;
72547;SDS011;60570;50.848;6.776;2024-03-23T02:03:37;1058.20;;;964.40;;
72547;SDS011;60570;50.848;6.776;2024-03-23T02:04:38;1056.47;;;962.08;;
72547;SDS011;60570;50.848;6.776;2024-03-23T02:05:39;1056.82;;;963.33;;
72547;SDS011;60570;50.848;6.776;2024-03-23T02:06:40;1060.60;;;966.63;;
72547;SDS011;60570;50.848;6.776;2024-03-23T02:07:41;1061.22;;;966.10;;
72547;SDS011;60570;50.848;6.776;2024-03-23T02:08:43;1055.93;;;961.33;;
72547;SDS011;60570;50.848;6.776;2024-03-23T02:09:45;1055.97;;;961.90;;
72547;SDS011;60570;50.848;6.776;2024-03-23T02:10:47;1061.63;;;967.75;;
72547;SDS011;60570;50.848;6.776;2024-03-23T02:11:49;1058.03;;;963.45;;
72547;SDS011;60570;50.848;6.776;2024-03-23T02:12:50;1060.90;;;966.08;;
72547;SDS011;60570;50.848;6.776;2024-03-23T02:13:51;1056.32;;;962.08;;
72547;SDS011;60570;50.848;6.776;2024-03-23T02:14:52;1056.70;;;962.40;;
72547;SDS011;60570;50.848;6.776;2024-03-23T02:15:53;1059.60;;;965.03;;
72547;SDS011;60570;50.848;6.776;2024-03-23T02:16:53;1064.37;;;970.20;;
72547;SDS011;60570;50.848;6.776;2024-03-23T02:17:55;1058.70;;;964.30;;
72547;SDS011;60570;50.848;6.776;2024-03-23T02:18:56;1056.43;;;962.33;;
72547;SDS011;60570;50.848;6.776;2024-03-23T02:19:56;1057.95;;;963.63;;
72547;SDS011;60570;50.848;6.776;2024-03-23T02:20:57;1057.60;;;963.28;;
72547;SDS011;60570;50.848;6.776;2024-03-23T02:21:59;1059.45;;;965.50;;
72547;SDS011;60570;50.848;6.776;2024-03-23T02:23:01;1056.83;;;962.77;;
72547;SDS011;60570;50.848;6.776;2024-03-23T02:25:03;1054.60;;;961.85;;
72547;SDS011;60570;50.848;6.776;2024-03-23T02:26:05;1056.20;;;962.90;;
72547;SDS011;60570;50.848;6.776;2024-03-23T02:27:05;1055.22;;;961.75;;
72547;SDS011;60570;50.848;6.776;2024-03-23T02:28:06;1060.00;;;966.03;;
72547;SDS011;60570;50.848;6.776;2024-03-23T02:29:07;1060.40;;;966.40;;
72547;SDS011;60570;50.848;6.776;2024-03-23T02:30:09;1063.63;;;969.87;;
72547;SDS011;60570;50.848;6.776;2024-03-23T02:31:10;1054.22;;;960.45;;
72547;SDS011;60570;50.848;6.776;2024-03-23T02:32:11;1062.50;;;968.13;;
72547;SDS011;60570;50.848;6.776;2024-03-23T02:33:12;1060.13;;;966.13;;
72547;SDS011;60570;50.848;6.776;2024-03-23T02:34:13;1057.75;;;964.60;;
72547;SDS011;60570;50.848;6.776;2024-03-23T02:35:14;1059.97;;;965.53;;
72547;SDS011;60570;50.848;6.776;2024-03-23T02:36:15;1058.37;;;964.43;;
72547;SDS011;60570;50.848;6.776;2024-03-23T02:37:16;1057.00;;;962.72;;
72547;SDS011;60570;50.848;6.776;2024-03-23T02:38:18;1059.20;;;965.22;;
72547;SDS011;60570;50.848;6.776;2024-03-23T02:40:20;1050.15;;;958.10;;
72547;SDS011;60570;50.848;6.776;2024-03-23T02:41:21;1052.57;;;959.90;;
72547;SDS011;60570;50.848;6.776;2024-03-23T02:42:23;1051.55;;;958.65;;
72547;SDS011;60570;50.848;6.776;2024-03-23T02:43:25;1058.85;;;966.15;;
72547;SDS011;60570;50.848;6.776;2024-03-23T02:44:44;1059.07;;;966.03;;
72547;SDS011;60570;50.848;6.776;2024-03-23T02:45:45;1052.95;;;959.97;;
72547;SDS011;60570;50.848;6.776;2024-03-23T02:46:47;1056.55;;;963.28;;
72547;SDS011;60570;50.848;6.776;2024-03-23T02:47:48;1063.32;;;969.05;;
72547;SDS011;60570;50.848;6.776;2024-03-23T02:48:52;1057.87;;;964.30;;
72547;SDS011;60570;50.848;6.776;2024-03-23T02:49:52;1061.30;;;968.23;;
72547;SDS011;60570;50.848;6.776;2024-03-23T02:50:55;1057.07;;;963.63;;
72547;SDS011;60570;50.848;6.776;2024-03-23T02:51:56;1058.43;;;964.72;;
72547;SDS011;60570;50.848;6.776;2024-03-23T02:52:56;1059.47;;;965.50;;
72547;SDS011;60570;50.848;6.776;2024-03-23T02:53:59;1057.27;;;963.47;;
72547;SDS011;60570;50.848;6.776;2024-03-23T02:55:00;1058.20;;;965.17;;
72547;SDS011;60570;50.848;6.776;2024-03-23T02:56:02;1056.47;;;963.42;;
72547;SDS011;60570;50.848;6.776;2024-03-23T02:57:03;1054.93;;;961.28;;
72547;SDS011;60570;50.848;6.776;2024-03-23T02:58:05;1053.85;;;960.38;;
72547;SDS011;60570;50.848;6.776;2024-03-23T02:59:06;1054.60;;;961.25;;
72547;SDS011;60570;50.848;6.776;2024-03-23T03:00:07;1060.00;;;966.77;;
72547;SDS011;60570;50.848;6.776;2024-03-23T03:02:10;1055.30;;;964.17;;
72547;SDS011;60570;50.848;6.776;2024-03-23T03:03:11;1050.47;;;958.50;;
72547;SDS011;60570;50.848;6.776;2024-03-23T03:04:12;1055.15;;;962.08;;
72547;SDS011;60570;50.848;6.776;2024-03-23T03:05:13;1054.15;;;961.15;;
72547;SDS011;60570;50.848;6.776;2024-03-23T03:06:22;1054.10;;;961.13;;
72547;SDS011;60570;50.848;6.776;2024-03-23T03:07:23;1053.55;;;960.75;;
72547;SDS011;60570;50.848;6.776;2024-03-23T03:08:24;1056.82;;;964.25;;
72547;SDS011;60570;50.848;6.776;2024-03-23T03:09:26;1057.45;;;964.55;;
72547;SDS011;60570;50.848;6.776;2024-03-23T03:10:28;1053.47;;;960.38;;
72547;SDS011;60570;50.848;6.776;2024-03-23T03:11:29;1051.03;;;958.03;;
72547;SDS011;60570;50.848;6.776;2024-03-23T03:12:29;1056.17;;;962.77;;
72547;SDS011;60570;50.848;6.776;2024-03-23T03:13:30;1055.53;;;962.47;;
72547;SDS011;60570;50.848;6.776;2024-03-23T03:15:33;1047.25;;;956.30;;
72547;SDS011;60570;50.848;6.776;2024-03-23T03:16:33;1046.57;;;954.83;;
72547;SDS011;60570;50.848;6.776;2024-03-23T03:17:35;1058.57;;;965.97;;
72547;SDS011;60570;50.848;6.776;2024-03-23T03:18:36;1057.82;;;964.95;;
72547;SDS011;60570;50.848;6.776;2024-03-23T03:19:36;1058.43;;;966.38;;
72547;SDS011;60570;50.848;6.776;2024-03-23T03:20:37;1059.60;;;966.60;;
72547;SDS011;60570;50.848;6.776;2024-03-23T03:21:40;1053.90;;;960.95;;
72547;SDS011;60570;50.848;6.776;2024-03-23T03:22:40;1049.63;;;957.30;;
72547;SDS011;60570;50.848;6.776;2024-03-23T03:23:41;1055.90;;;962.50;;
72547;SDS011;60570;50.848;6.776;2024-03-23T03:24:44;1055.75;;;962.50;;
72547;SDS011;60570;50.848;6.776;2024-03-23T03:25:45;1050.67;;;958.13;;
72547;SDS011;60570;50.848;6.776;2024-03-23T03:26:46;1053.87;;;960.60;;
72547;SDS011;60570;50.848;6.776;2024-03-23T03:27:47;1054.00;;;960.93;;
72547;SDS011;60570;50.848;6.776;2024-03-23T03:28:48;1050.07;;;957.30;;
72547;SDS011;60570;50.848;6.776;2024-03-23T03:29:50;1059.37;;;965.37;;
72547;SDS011;60570;50.848;6.776;2024-03-23T03:30:50;1055.32;;;961.97;;
72547;SDS011;60570;50.848;6.776;2024-03-23T03:31:51;1058.63;;;965.70;;
72547;SDS011;60570;50.848;6.776;2024-03-23T03:32:53;1054.70;;;961.03;;
72547;SDS011;60570;50.848;6.776;2024-03-23T03:33:55;1052.78;;;959.63;;
72547;SDS011;60570;50.848;6.776;2024-03-23T03:34:55;1056.37;;;962.73;;
72547;SDS011;60570;50.848;6.776;2024-03-23T03:35:56;1052.47;;;959.30;;
72547;SDS011;60570;50.848;6.776;2024-03-23T03:36:58;1054.17;;;960.87;;
72547;SDS011;60570;50.848;6.776;2024-03-23T03:37:59;1049.20;;;956.47;;
72547;SDS011;60570;50.848;6.776;2024-03-23T03:39:00;1053.15;;;960.10;;
72547;SDS011;60570;50.848;6.776;2024-03-23T03:40:04;1049.97;;;957.03;;
72547;SDS011;60570;50.848;6.776;2024-03-23T03:41:08;1052.30;;;959.43;;
72547;SDS011;60570;50.848;6.776;2024-03-23T03:42:10;1052.27;;;959.33;;
72547;SDS011;60570;50.848;6.776;2024-03-23T03:43:11;1054.33;;;961.00;;
72547;SDS011;60570;50.848;6.776;2024-03-23T03:44:12;1059.23;;;965.53;;
72547;SDS011;60570;50.848;6.776;2024-03-23T03:45:13;1052.50;;;960.27;;
72547;SDS011;60570;50.848;6.776;2024-03-23T03:46:14;1050.93;;;958.22;;
72547;SDS011;60570;50.848;6.776;2024-03-23T03:47:15;1056.43;;;963.83;;
72547;SDS011;60570;50.848;6.776;2024-03-23T03:48:15;1060.17;;;966.53;;
72547;SDS011;60570;50.848;6.776;2024-03-23T03:49:17;1055.65;;;962.45;;
72547;SDS011;60570;50.848;6.776;2024-03-23T03:50:18;1054.83;;;961.63;;
72547;SDS011;60570;50.848;6.776;2024-03-23T03:51:18;1059.67;;;966.20;;
72547;SDS011;60570;50.848;6.776;2024-03-23T03:52:21;1057.93;;;964.33;;
72547;SDS011;60570;50.848;6.776;2024-03-23T03:53:21;1048.03;;;955.35;;
72547;SDS011;60570;50.848;6.776;2024-03-23T03:54:22;1052.95;;;959.85;;
72547;SDS011;60570;50.848;6.776;2024-03-23T03:55:24;1051.25;;;958.28;;
72547;SDS011;60570;50.848;6.776;2024-03-23T03:56:26;1051.15;;;958.25;;
72547;SDS011;60570;50.848;6.776;2024-03-23T03:57:27;1047.22;;;954.95;;
72547;SDS011;60570;50.848;6.776;2024-03-23T03:58:28;1051.57;;;958.60;;
72547;SDS011;60570;50.848;6.776;2024-03-23T03:59:30;1055.07;;;961.87;;
72547;SDS011;60570;50.848;6.776;2024-03-23T04:00:31;1054.65;;;962.55;;
72547;SDS011;60570;50.848;6.776;2024-03-23T04:01:31;1049.72;;;957.13;;
72547;SDS011;60570;50.848;6.776;2024-03-23T04:02:32;1052.28;;;959.45;;
72547;SDS011;60570;50.848;6.776;2024-03-23T04:03:34;1053.68;;;960.85;;
72547;SDS011;60570;50.848;6.776;2024-03-23T04:04:34;1053.70;;;960.72;;
72547;SDS011;60570;50.848;6.776;2024-03-23T04:05:35;1057.80;;;965.43;;
72547;SDS011;60570;50.848;6.776;2024-03-23T04:06:36;1056.90;;;964.63;;
72547;SDS011;60570;50.848;6.776;2024-03-23T04:07:37;1052.47;;;959.58;;
72547;SDS011;60570;50.848;6.776;2024-03-23T04:08:38;1054.10;;;961.22;;
72547;SDS011;60570;50.848;6.776;2024-03-23T04:09:39;1055.97;;;962.90;;
72547;SDS011;60570;50.848;6.776;2024-03-23T04:10:41;1052.90;;;960.13;;
72547;SDS011;60570;50.848;6.776;2024-03-23T04:11:42;1052.13;;;959.33;;
72547;SDS011;60570;50.848;6.776;2024-03-23T04:12:43;1051.15;;;958.92;;
72547;SDS011;60570;50.848;6.776;2024-03-23T04:13:44;1057.70;;;965.43;;
72547;SDS011;60570;50.848;6.776;2024-03-23T04:14:46;1059.00;;;966.50;;
72547;SDS011;60570;50.848;6.776;2024-03-23T04:15:47;1057.67;;;964.80;;
72547;SDS011;60570;50.848;6.776;2024-03-23T04:16:47;1052.70;;;960.10;;
72547;SDS011;60570;50.848;6.776;2024-03-23T04:17:50;1057.32;;;964.65;;
72547;SDS011;60570;50.848;6.776;2024-03-23T04:18:50;1054.15;;;961.28;;
72547;SDS011;60570;50.848;6.776;2024-03-23T04:19:51;1055.90;;;962.80;;
72547;SDS011;60570;50.848;6.776;2024-03-23T04:20:52;1057.53;;;965.22;;
72547;SDS011;60570;50.848;6.776;2024-03-23T04:21:54;1054.53;;;962.00;;
72547;SDS011;60570;50.848;6.776;2024-03-23T04:22:54;1054.53;;;961.60;;
72547;SDS011;60570;50.848;6.776;2024-03-23T04:23:55;1052.85;;;960.20;;
72547;SDS011;60570;50.848;6.776;2024-03-23T04:24:56;1054.30;;;961.60;;
72547;SDS011;60570;50.848;6.776;2024-03-23T04:26:03;1051.80;;;959.30;;
72547;SDS011;60570;50.848;6.776;2024-03-23T04:27:05;1051.28;;;958.55;;
72547;SDS011;60570;50.848;6.776;2024-03-23T04:28:06;1055.80;;;963.67;;
72547;SDS011;60570;50.848;6.776;2024-03-23T04:29:06;1050.03;;;957.55;;
72547;SDS011;60570;50.848;6.776;2024-03-23T04:30:08;1055.13;;;962.83;;
72547;SDS011;60570;50.848;6.776;2024-03-23T04:31:11;1047.72;;;955.40;;
72547;SDS011;60570;50.848;6.776;2024-03-23T04:32:11;1048.43;;;956.07;;
72547;SDS011;60570;50.848;6.776;2024-03-23T04:33:14;1046.90;;;954.53;;
72547;SDS011;60570;50.848;6.776;2024-03-23T04:34:15;1054.00;;;960.90;;
72547;SDS011;60570;50.848;6.776;2024-03-23T04:35:16;1048.67;;;956.63;;
72547;SDS011;60570;50.848;6.776;2024-03-23T04:36:17;1049.50;;;957.23;;
72547;SDS011;60570;50.848;6.776;2024-03-23T04:37:19;1051.30;;;959.33;;
72547;SDS011;60570;50.848;6.776;2024-03-23T04:38:21;1051.65;;;959.00;;
72547;SDS011;60570;50.848;6.776;2024-03-23T04:39:22;1054.78;;;962.40;;
72547;SDS011;60570;50.848;6.776;2024-03-23T04:40:23;1051.97;;;959.78;;
72547;SDS011;60570;50.848;6.776;2024-03-23T04:41:25;1045.80;;;953.75;;
72547;SDS011;60570;50.848;6.776;2024-03-23T04:42:26;1058.03;;;965.50;;
72547;SDS011;60570;50.848;6.776;2024-03-23T04:43:28;1048.75;;;956.22;;
72547;SDS011;60570;50.848;6.776;2024-03-23T04:44:29;1051.83;;;959.90;;
72547;SDS011;60570;50.848;6.776;2024-03-23T04:45:31;1046.75;;;954.30;;
72547;SDS011;60570;50.848;6.776;2024-03-23T04:46:32;1048.22;;;955.55;;
72547;SDS011;60570;50.848;6.776;2024-03-23T04:47:33;1052.05;;;959.63;;
72547;SDS011;60570;50.848;6.776;2024-03-23T04:48:35;1048.95;;;956.45;;
72547;SDS011;60570;50.848;6.776;2024-03-23T04:49:37;1046.97;;;954.60;;
72547;SDS011;60570;50.848;6.776;2024-03-23T04:50:38;1052.73;;;960.80;;
72547;SDS011;60570;50.848;6.776;2024-03-23T04:51:39;1053.55;;;960.97;;
72547;SDS011;60570;50.848;6.776;2024-03-23T04:52:46;1049.50;;;957.20;;
72547;SDS011;60570;50.848;6.776;2024-03-23T04:53:46;1049.70;;;957.20;;
72547;SDS011;60570;50.848;6.776;2024-03-23T04:54:48;1051.60;;;959.20;;
72547;SDS011;60570;50.848;6.776;2024-03-23T04:55:49;1045.50;;;953.33;;
72547;SDS011;60570;50.848;6.776;2024-03-23T04:56:51;1047.75;;;955.45;;
72547;SDS011;60570;50.848;6.776;2024-03-23T04:58:54;1047.20;;;957.10;;
72547;SDS011;60570;50.848;6.776;2024-03-23T04:59:54;1048.72;;;956.78;;
72547;SDS011;60570;50.848;6.776;2024-03-23T05:00:55;1049.32;;;957.75;;
72547;SDS011;60570;50.848;6.776;2024-03-23T05:01:56;1052.95;;;960.95;;
72547;SDS011;60570;50.848;6.776;2024-03-23T05:02:58;1043.57;;;951.83;;
72547;SDS011;60570;50.848;6.776;2024-03-23T05:03:58;1050.22;;;957.40;;
72547;SDS011;60570;50.848;6.776;2024-03-23T05:04:59;1046.07;;;953.87;;
72547;SDS011;60570;50.848;6.776;2024-03-23T05:06:00;1048.72;;;956.75;;
72547;SDS011;60570;50.848;6.776;2024-03-23T05:07:02;1048.47;;;956.05;;
72547;SDS011;60570;50.848;6.776;2024-03-23T05:08:03;1049.55;;;956.97;;
72547;SDS011;60570;50.848;6.776;2024-03-23T05:09:04;1046.07;;;954.22;;
72547;SDS011;60570;50.848;6.776;2024-03-23T05:10:06;1052.87;;;960.47;;
72547;SDS011;60570;50.848;6.776;2024-03-23T05:11:10;1048.47;;;956.27;;
72547;SDS011;60570;50.848;6.776;2024-03-23T05:12:12;1049.47;;;956.93;;
72547;SDS011;60570;50.848;6.776;2024-03-23T05:14:14;1043.68;;;953.33;;
72547;SDS011;60570;50.848;6.776;2024-03-23T05:15:15;1045.68;;;954.05;;
72547;SDS011;60570;50.848;6.776;2024-03-23T05:16:16;1048.03;;;956.30;;
72547;SDS011;60570;50.848;6.776;2024-03-23T05:17:17;1045.80;;;953.83;;
72547;SDS011;60570;50.848;6.776;2024-03-23T05:18:17;1051.30;;;958.97;;
72547;SDS011;60570;50.848;6.776;2024-03-23T05:19:19;1049.18;;;957.03;;
72547;SDS011;60570;50.848;6.776;2024-03-23T05:20:20;1051.10;;;959.25;;
72547;SDS011;60570;50.848;6.776;2024-03-23T05:21:20;1050.70;;;958.65;;
72547;SDS011;60570;50.848;6.776;2024-03-23T05:22:21;1051.53;;;959.00;;
72547;SDS011;60570;50.848;6.776;2024-03-23T05:23:23;1045.38;;;953.35;;
72547;SDS011;60570;50.848;6.776;2024-03-23T05:24:24;1049.93;;;957.43;;
72547;SDS011;60570;50.848;6.776;2024-03-23T05:25:24;1050.47;;;959.08;;
72547;SDS011;60570;50.848;6.776;2024-03-23T05:26:25;1045.47;;;953.22;;
72547;SDS011;60570;50.848;6.776;2024-03-23T05:27:28;1049.55;;;957.65;;
72547;SDS011;60570;50.848;6.776;2024-03-23T05:29:29;1041.38;;;951.13;;
72547;SDS011;60570;50.848;6.776;2024-03-23T05:30:30;1050.88;;;959.92;;
72547;SDS011;60570;50.848;6.776;2024-03-23T05:31:31;1050.93;;;959.65;;
72547;SDS011;60570;50.848;6.776;2024-03-23T05:32:32;1050.57;;;959.30;;
72547;SDS011;60570;50.848;6.776;2024-03-23T05:33:33;1051.50;;;960.08;;
72547;SDS011;60570;50.848;6.776;2024-03-23T05:34:34;1041.88;;;950.53;;
72547;SDS011;60570;50.848;6.776;2024-03-23T05:35:35;1046.78;;;954.80;;
72547;SDS011;60570;50.848;6.776;2024-03-23T05:36:36;1050.90;;;959.53;;
72547;SDS011;60570;50.848;6.776;2024-03-23T05:37:37;1048.00;;;956.05;;
72547;SDS011;60570;50.848;6.776;2024-03-23T05:38:38;1051.07;;;959.23;;
72547;SDS011;60570;50.848;6.776;2024-03-23T05:39:39;1048.70;;;956.38;;
72547;SDS011;60570;50.848;6.776;2024-03-23T05:40:40;1052.47;;;960.33;;
72547;SDS011;60570;50.848;6.776;2024-03-23T05:41:40;1046.63;;;954.88;;
72547;SDS011;60570;50.848;6.776;2024-03-23T05:42:42;1047.90;;;956.20;;
72547;SDS011;60570;50.848;6.776;2024-03-23T05:43:44;1049.72;;;957.53;;
72547;SDS011;60570;50.848;6.776;2024-03-23T05:44:45;1048.93;;;956.90;;
72547;SDS011;60570;50.848;6.776;2024-03-23T05:45:46;1050.23;;;958.37;;
72547;SDS011;60570;50.848;6.776;2024-03-23T05:46:53;1046.75;;;955.85;;
72547;SDS011;60570;50.848;6.776;2024-03-23T05:48:57;1043.47;;;954.42;;
72547;SDS011;60570;50.848;6.776;2024-03-23T05:50:02;1049.57;;;959.28;;
72547;SDS011;60570;50.848;6.776;2024-03-23T05:52:05;1043.28;;;954.90;;
72547;SDS011;60570;50.848;6.776;2024-03-23T05:53:06;1045.67;;;955.13;;
72547;SDS011;60570;50.848;6.776;2024-03-23T05:54:08;1037.60;;;947.17;;
72547;SDS011;60570;50.848;6.776;2024-03-23T05:55:08;1045.50;;;954.40;;
72547;SDS011;60570;50.848;6.776;2024-03-23T05:56:09;1044.55;;;953.42;;
72547;SDS011;60570;50.848;6.776;2024-03-23T05:57:10;1042.93;;;952.45;;
72547;SDS011;60570;50.848;6.776;2024-03-23T05:58:14;1045.63;;;954.10;;
72547;SDS011;60570;50.848;6.776;2024-03-23T05:59:16;1046.07;;;954.67;;
72547;SDS011;60570;50.848;6.776;2024-03-23T06:00:17;1041.97;;;950.97;;
72547;SDS011;60570;50.848;6.776;2024-03-23T06:01:18;1047.07;;;955.35;;
72547;SDS011;60570;50.848;6.776;2024-03-23T06:02:19;1047.10;;;955.53;;
72547;SDS011;60570;50.848;6.776;2024-03-23T06:03:20;1053.95;;;962.08;;
72547;SDS011;60570;50.848;6.776;2024-03-23T06:04:21;1049.68;;;957.92;;
72547;SDS011;60570;50.848;6.776;2024-03-23T06:05:22;1049.07;;;958.13;;
72547;SDS011;60570;50.848;6.776;2024-03-23T06:06:23;1047.70;;;956.03;;
72547;SDS011;60570;50.848;6.776;2024-03-23T06:07:26;1046.10;;;954.45;;
72547;SDS011;60570;50.848;6.776;2024-03-23T06:08:27;1047.05;;;956.13;;
72547;SDS011;60570;50.848;6.776;2024-03-23T06:09:28;1043.95;;;952.22;;
72547;SDS011;60570;50.848;6.776;2024-03-23T06:10:31;1047.03;;;955.47;;
72547;SDS011;60570;50.848;6.776;2024-03-23T06:11:33;1051.50;;;959.50;;
72547;SDS011;60570;50.848;6.776;2024-03-23T06:12:33;1048.75;;;957.75;;
72547;SDS011;60570;50.848;6.776;2024-03-23T06:13:35;1052.63;;;960.63;;
72547;SDS011;60570;50.848;6.776;2024-03-23T06:14:37;1047.68;;;956.05;;
72547;SDS011;60570;50.848;6.776;2024-03-23T06:15:38;1050.30;;;958.78;;
72547;SDS011;60570;50.848;6.776;2024-03-23T06:16:38;1045.75;;;954.22;;
72547;SDS011;60570;50.848;6.776;2024-03-23T06:17:39;1047.30;;;955.25;;
72547;SDS011;60570;50.848;6.776;2024-03-23T06:18:41;1046.05;;;954.53;;
72547;SDS011;60570;50.848;6.776;2024-03-23T06:19:42;1041.80;;;950.60;;
72547;SDS011;60570;50.848;6.776;2024-03-23T06:20:42;1053.20;;;961.20;;
72547;SDS011;60570;50.848;6.776;2024-03-23T06:21:43;1045.63;;;953.83;;
72547;SDS011;60570;50.848;6.776;2024-03-23T06:22:45;1048.75;;;956.78;;
72547;SDS011;60570;50.848;6.776;2024-03-23T06:23:45;1046.25;;;954.63;;
72547;SDS011;60570;50.848;6.776;2024-03-23T06:24:51;1048.72;;;957.40;;
72547;SDS011;60570;50.848;6.776;2024-03-23T06:25:51;1051.30;;;959.07;;
72547;SDS011;60570;50.848;6.776;2024-03-23T06:26:53;1047.30;;;955.47;;
72547;SDS011;60570;50.848;6.776;2024-03-23T06:27:54;1049.13;;;957.90;;
72547;SDS011;60570;50.848;6.776;2024-03-23T06:28:56;1050.78;;;958.40;;
72547;SDS011;60570;50.848;6.776;2024-03-23T06:29:58;1049.95;;;958.63;;
72547;SDS011;60570;50.848;6.776;2024-03-23T06:30:59;1042.28;;;951.20;;
72547;SDS011;60570;50.848;6.776;2024-03-23T06:32:00;1044.77;;;953.27;;
72547;SDS011;60570;50.848;6.776;2024-03-23T06:33:00;1051.30;;;959.90;;
72547;SDS011;60570;50.848;6.776;2024-03-23T06:34:02;1044.32;;;953.67;;
72547;SDS011;60570;50.848;6.776;2024-03-23T06:35:03;1050.80;;;958.67;;
72547;SDS011;60570;50.848;6.776;2024-03-23T06:36:08;1047.47;;;956.65;;
72547;SDS011;60570;50.848;6.776;2024-03-23T06:37:10;1043.70;;;952.33;;
72547;SDS011;60570;50.848;6.776;2024-03-23T06:38:12;1044.53;;;952.90;;
72547;SDS011;60570;50.848;6.776;2024-03-23T06:39:12;1046.53;;;954.88;;
72547;SDS011;60570;50.848;6.776;2024-03-23T06:40:15;1049.90;;;958.17;;
72547;SDS011;60570;50.848;6.776;2024-03-23T06:41:17;1042.45;;;951.13;;
72547;SDS011;60570;50.848;6.776;2024-03-23T06:42:17;1045.47;;;954.07;;
72547;SDS011;60570;50.848;6.776;2024-03-23T06:43:18;1047.37;;;956.03;;
72547;SDS011;60570;50.848;6.776;2024-03-23T06:44:21;1044.65;;;953.33;;
72547;SDS011;60570;50.848;6.776;2024-03-23T06:45:22;1047.37;;;956.07;;
72547;SDS011;60570;50.848;6.776;2024-03-23T06:46:23;1042.63;;;951.40;;